Hozan Maru — JJ4010 — position and weather

sailwx.info

Track history (hours):
 
Tides and Currents Weather Stations Pressure Air Temp Water Temp Dewpoint Dewpoint Depression Visibility Wind Speed Wind Dir Waves Ship Positions

Hozan Maru

Last reported at 2014-Sep-19 06:12 UTC. Time now 2014-Sep-20 22:06 UTC.
Position N 34°40' E 135°26'.

Length 38 m; draft 3.6 m.

Type: Tug. MMSI: 431401501.

Date/timePositionNaut miles runAvg speedWind from/ knotsBaromVisibWave heightAir tempDewpointWater temp
2014-Sep-19 06:12N 34°40' E 135°26'7 8.7
2014-Sep-19 05:27N 34°33' E 135°23'1 1.3
2014-Sep-19 04:33N 34°34' E 135°24'1 0.3
2014-Sep-19 02:31N 34°34' E 135°25'0 0.0
2014-Sep-19 01:33N 34°34' E 135°25'3 3.4
2014-Sep-19 00:33N 34°33' E 135°21'4 4.0
2014-Sep-18 23:33N 34°37' E 135°23'3 0.2
2014-Sep-18 07:34N 34°39' E 135°26'1 0.0
2014-Sep-17 07:33N 34°39' E 135°25'2 1.7
2014-Sep-17 06:32N 34°38' E 135°27'1 0.0
2014-Sep-15 08:33N 34°39' E 135°25'1 0.6
2014-Sep-15 07:33N 34°39' E 135°25'1 0.1
2014-Sep-14 23:12N 34°39' E 135°24'7 9.5
2014-Sep-14 22:29N 34°32' E 135°24'2 1.8
2014-Sep-14 21:33N 34°33' E 135°23'6 0.2
2014-Sep-13 09:33N 34°39' E 135°25'2 1.5
2014-Sep-13 08:31N 34°38' E 135°26'0 0.4
2014-Sep-13 07:34N 34°38' E 135°27'0 0.0
2014-Sep-13 06:33N 34°38' E 135°27'6 4.1
2014-Sep-13 05:09N 34°33' E 135°25'1 1.2
2014-Sep-13 04:32N 34°33' E 135°25'6 6.0
2014-Sep-13 03:33N 34°34' E 135°18'4 3.3
2014-Sep-13 02:19N 34°33' E 135°23'3 3.8
2014-Sep-13 01:33N 34°33' E 135°27'0 0.2
2014-Sep-13 00:33N 34°33' E 135°26'1 1.3
2014-Sep-12 23:33N 34°33' E 135°25'6 6.0
2014-Sep-12 22:33N 34°39' E 135°25'2 0.1
2014-Sep-12 03:33N 34°37' E 135°23'6 5.9
2014-Sep-12 02:32N 34°31' E 135°24'0 0.4
2014-Sep-12 01:33N 34°31' E 135°23'2 2.2
2014-Sep-12 00:33N 34°33' E 135°22'7 0.6
2014-Sep-11 13:34N 34°39' E 135°26'0 0.1
2014-Sep-11 12:33N 34°39' E 135°26'0 0.0
2014-Sep-11 11:33N 34°39' E 135°26'3 0.4
2014-Sep-11 04:33N 34°37' E 135°23'4 3.7
2014-Sep-11 03:24N 34°33' E 135°26'5 5.4
2014-Sep-11 02:33N 34°34' E 135°20'4 3.5
2014-Sep-11 01:33N 34°37' E 135°23'3 0.2
2014-Sep-10 10:33N 34°39' E 135°26'1312.7
2014-Sep-10 09:33N 34°37' E 135°10'1211.7
2014-Sep-10 08:32N 34°38' E 134°56'7 0.8
2014-Sep-09 23:20N 34°40' E 134°48'7 0.4
2014-Sep-09 07:21N 34°38' E 134°56'910.8
2014-Sep-09 06:33N 34°37' E 135°06'  
Track history (hours):
 
Tides and Currents Weather Stations Pressure Air Temp Water Temp Dewpoint Dewpoint Depression Visibility Wind Speed Wind Dir Waves Ship Positions

Hozan Maru

Last reported at 2014-Sep-19 06:12 UTC. Time now 2014-Sep-20 22:06 UTC.
Position N 34°40' E 135°26'.

Length 38 m; draft 3.6 m.

Type: Tug. MMSI: 431401501.

Date/timePositionNaut miles runAvg speedWind from/ knotsBaromVisibWave heightAir tempDewpointWater temp
2014-Sep-19 06:12N 34°40' E 135°26'7 8.7
2014-Sep-19 05:27N 34°33' E 135°23'1 1.3
2014-Sep-19 04:33N 34°34' E 135°24'1 0.3
2014-Sep-19 02:31N 34°34' E 135°25'0 0.0
2014-Sep-19 01:33N 34°34' E 135°25'3 3.4
2014-Sep-19 00:33N 34°33' E 135°21'4 4.0
2014-Sep-18 23:33N 34°37' E 135°23'3 0.2
2014-Sep-18 07:34N 34°39' E 135°26'1 0.0
2014-Sep-17 07:33N 34°39' E 135°25'2 1.7
2014-Sep-17 06:32N 34°38' E 135°27'1 0.0
2014-Sep-15 08:33N 34°39' E 135°25'1 0.6
2014-Sep-15 07:33N 34°39' E 135°25'1 0.1
2014-Sep-14 23:12N 34°39' E 135°24'7 9.5
2014-Sep-14 22:29N 34°32' E 135°24'2 1.8
2014-Sep-14 21:33N 34°33' E 135°23'6 0.2
2014-Sep-13 09:33N 34°39' E 135°25'2 1.5
2014-Sep-13 08:31N 34°38' E 135°26'0 0.4
2014-Sep-13 07:34N 34°38' E 135°27'0 0.0
2014-Sep-13 06:33N 34°38' E 135°27'6 4.1
2014-Sep-13 05:09N 34°33' E 135°25'1 1.2
2014-Sep-13 04:32N 34°33' E 135°25'6 6.0
2014-Sep-13 03:33N 34°34' E 135°18'4 3.3
2014-Sep-13 02:19N 34°33' E 135°23'3 3.8
2014-Sep-13 01:33N 34°33' E 135°27'0 0.2
2014-Sep-13 00:33N 34°33' E 135°26'1 1.3
2014-Sep-12 23:33N 34°33' E 135°25'6 6.0
2014-Sep-12 22:33N 34°39' E 135°25'2 0.1
2014-Sep-12 03:33N 34°37' E 135°23'6 5.9
2014-Sep-12 02:32N 34°31' E 135°24'0 0.4
2014-Sep-12 01:33N 34°31' E 135°23'2 2.2
2014-Sep-12 00:33N 34°33' E 135°22'7 0.6
2014-Sep-11 13:34N 34°39' E 135°26'0 0.1
2014-Sep-11 12:33N 34°39' E 135°26'0 0.0
2014-Sep-11 11:33N 34°39' E 135°26'3 0.4
2014-Sep-11 04:33N 34°37' E 135°23'4 3.7
2014-Sep-11 03:24N 34°33' E 135°26'5 5.4
2014-Sep-11 02:33N 34°34' E 135°20'4 3.5
2014-Sep-11 01:33N 34°37' E 135°23'3 0.2
2014-Sep-10 10:33N 34°39' E 135°26'1312.7
2014-Sep-10 09:33N 34°37' E 135°10'1211.7
2014-Sep-10 08:32N 34°38' E 134°56'7 0.8
2014-Sep-09 23:20N 34°40' E 134°48'7 0.4
2014-Sep-09 07:21N 34°38' E 134°56'910.8
2014-Sep-09 06:33N 34°37' E 135°06'  

Dump ship's entire track history